createdAt,value
2017-10-03T00:00:02.199Z,17.94
2017-10-03T00:02:29.759Z,17.72
2017-10-03T00:04:57.298Z,17.40
2017-10-03T00:07:24.818Z,17.35
2017-10-03T00:09:52.374Z,17.39
2017-10-03T00:12:19.913Z,17.27
2017-10-03T00:14:47.451Z,17.39
2017-10-03T00:17:14.959Z,17.51
2017-10-03T00:19:42.857Z,17.31
2017-10-03T00:22:10.375Z,17.31
2017-10-03T00:24:37.894Z,17.30
2017-10-03T00:27:05.473Z,17.21
2017-10-03T00:29:33.011Z,17.20
2017-10-03T00:32:00.519Z,17.07
2017-10-03T00:34:28.080Z,17.04
2017-10-03T00:36:55.599Z,17.03
2017-10-03T00:39:23.146Z,16.99
2017-10-03T00:41:50.911Z,17.09
2017-10-03T00:44:18.415Z,17.10
2017-10-03T00:46:46.027Z,17.11
2017-10-03T00:49:13.790Z,16.95
2017-10-03T00:51:41.387Z,17.02
2017-10-03T00:54:08.909Z,17.22
2017-10-03T00:56:36.573Z,17.09
2017-10-03T00:59:04.130Z,17.09
2017-10-03T01:01:31.639Z,17.11
2017-10-03T01:03:59.374Z,17.12
2017-10-03T01:06:26.911Z,16.88
2017-10-03T01:08:54.418Z,16.94
2017-10-03T01:11:21.967Z,16.87
2017-10-03T01:13:49.494Z,17.20
2017-10-03T01:16:17.007Z,17.06
2017-10-03T01:18:44.574Z,16.84
2017-10-03T01:21:12.087Z,16.99
2017-10-03T01:23:39.854Z,16.91
2017-10-03T01:26:07.712Z,16.76
2017-10-03T01:28:35.223Z,16.90
2017-10-03T01:31:02.730Z,16.87
2017-10-03T01:33:30.439Z,16.88
2017-10-03T01:35:57.952Z,16.74
2017-10-03T01:38:25.508Z,16.71
2017-10-03T01:40:53.055Z,16.68
2017-10-03T01:43:20.707Z,16.60
2017-10-03T01:45:48.220Z,16.67
2017-10-03T01:48:15.758Z,16.58
2017-10-03T01:50:43.281Z,16.46
2017-10-03T01:53:10.786Z,16.48
2017-10-03T01:55:38.482Z,16.43
2017-10-03T01:58:05.989Z,16.58
2017-10-03T02:00:33.501Z,16.62
2017-10-03T02:03:01.362Z,16.67
2017-10-03T02:05:28.870Z,16.39
2017-10-03T02:07:56.378Z,16.56
2017-10-03T02:10:24.061Z,16.35
2017-10-03T02:12:51.568Z,16.58
2017-10-03T02:15:19.078Z,16.50
2017-10-03T02:17:46.637Z,16.60
2017-10-03T02:20:14.195Z,16.63
2017-10-03T02:22:41.702Z,16.64
2017-10-03T02:25:09.242Z,16.60
2017-10-03T02:27:36.758Z,16.81
2017-10-03T02:30:04.275Z,16.78
2017-10-03T02:32:32.179Z,17.01
2017-10-03T02:34:59.857Z,17.08
2017-10-03T02:37:27.359Z,17.06
2017-10-03T02:39:54.988Z,17.23
2017-10-03T02:42:22.535Z,17.39
2017-10-03T02:44:50.047Z,17.37
2017-10-03T02:47:17.857Z,17.58
2017-10-03T02:49:45.418Z,17.53
2017-10-03T02:52:12.939Z,17.65
2017-10-03T02:54:40.751Z,17.72
2017-10-03T02:57:08.262Z,17.60
2017-10-03T02:59:35.780Z,17.38
2017-10-03T03:02:03.464Z,17.19
2017-10-03T03:04:30.980Z,17.26
2017-10-03T03:06:58.535Z,17.23
2017-10-03T03:09:26.094Z,17.18
2017-10-03T03:11:53.601Z,17.23
2017-10-03T03:14:21.151Z,17.12
2017-10-03T03:16:48.873Z,17.15
2017-10-03T03:19:16.381Z,17.11
2017-10-03T03:21:43.889Z,17.23
2017-10-03T03:24:11.448Z,17.22
2017-10-03T03:26:39.407Z,17.33
2017-10-03T03:29:06.914Z,17.34
2017-10-03T03:31:34.842Z,16.68
2017-10-03T03:34:02.354Z,16.20
2017-10-03T03:36:29.867Z,15.56
2017-10-03T03:38:57.463Z,15.28
2017-10-03T03:41:24.982Z,14.75
2017-10-03T03:43:52.536Z,14.90
2017-10-03T03:46:20.110Z,14.97
2017-10-03T03:48:47.654Z,14.60
2017-10-03T03:51:15.159Z,14.72
2017-10-03T03:53:43.079Z,14.71
2017-10-03T03:56:10.587Z,14.67
2017-10-03T03:58:38.105Z,14.60
2017-10-03T04:01:05.654Z,14.46
2017-10-03T04:03:33.165Z,14.50
2017-10-03T04:06:00.676Z,14.41
2017-10-03T04:08:28.408Z,14.40
2017-10-03T04:10:55.923Z,14.35
2017-10-03T04:13:23.450Z,14.22
2017-10-03T04:15:51.317Z,14.26
2017-10-03T04:18:18.826Z,14.40
2017-10-03T04:20:46.333Z,14.15
2017-10-03T04:23:13.887Z,14.14
2017-10-03T04:25:41.394Z,14.12
2017-10-03T04:28:08.919Z,14.10
2017-10-03T04:30:36.670Z,14.18
2017-10-03T04:33:04.177Z,14.11
2017-10-03T04:35:31.683Z,14.13
2017-10-03T04:37:59.453Z,14.02
2017-10-03T04:40:27.010Z,13.88
2017-10-03T04:42:54.523Z,13.79
2017-10-03T04:45:22.418Z,13.61
2017-10-03T04:47:49.930Z,13.74
2017-10-03T04:50:17.437Z,13.62
2017-10-03T04:52:45.010Z,13.52
2017-10-03T04:55:12.514Z,13.61
2017-10-03T04:57:40.042Z,13.30
2017-10-03T05:00:07.891Z,13.28
2017-10-03T05:02:35.414Z,13.19
2017-10-03T05:05:02.945Z,13.36
2017-10-03T05:07:30.569Z,13.23
2017-10-03T05:09:58.130Z,13.19
2017-10-03T05:12:25.700Z,13.26
2017-10-03T05:14:53.247Z,13.08
2017-10-03T05:17:20.805Z,13.15
2017-10-03T05:19:48.365Z,13.22
2017-10-03T05:22:16.105Z,13.20
2017-10-03T05:24:43.633Z,13.20
2017-10-03T05:27:11.155Z,13.18
2017-10-03T05:29:38.719Z,13.29
2017-10-03T05:32:06.262Z,13.30
2017-10-03T05:34:33.843Z,13.37
2017-10-03T05:37:01.813Z,13.38
2017-10-03T05:39:29.350Z,13.33
2017-10-03T05:41:56.861Z,13.33
2017-10-03T05:44:24.570Z,13.32
2017-10-03T05:46:52.079Z,13.24
2017-10-03T05:49:19.996Z,13.19
2017-10-03T05:51:47.857Z,13.22
2017-10-03T05:54:15.424Z,13.18
2017-10-03T05:56:42.930Z,13.04
2017-10-03T05:59:10.478Z,13.20
2017-10-03T06:01:37.986Z,13.24
2017-10-03T06:04:05.496Z,13.22
2017-10-03T06:06:33.083Z,13.17
2017-10-03T06:09:00.598Z,13.28
2017-10-03T06:11:28.110Z,13.34
2017-10-03T06:13:55.900Z,13.40
2017-10-03T06:16:23.454Z,13.41
2017-10-03T06:18:51.115Z,13.47
2017-10-03T06:21:18.806Z,13.31
2017-10-03T06:23:46.335Z,13.48
2017-10-03T06:26:13.895Z,13.39
2017-10-03T06:28:41.445Z,13.35
2017-10-03T06:31:08.953Z,13.34
2017-10-03T06:33:36.470Z,13.00
2017-10-03T06:36:04.038Z,13.09
2017-10-03T06:38:31.588Z,13.28
2017-10-03T06:40:59.095Z,13.35
2017-10-03T06:43:27.012Z,13.39
2017-10-03T06:45:54.573Z,13.48
2017-10-03T06:48:22.077Z,13.55
2017-10-03T06:50:50.927Z,13.59
2017-10-03T06:53:18.580Z,13.53
2017-10-03T06:55:46.086Z,13.54
2017-10-03T06:58:13.628Z,13.53
2017-10-03T07:00:41.166Z,13.55
2017-10-03T07:03:08.683Z,13.41
2017-10-03T07:05:36.553Z,13.60
2017-10-03T07:08:04.062Z,13.48
2017-10-03T07:10:31.638Z,13.53
2017-10-03T07:12:59.361Z,13.56
2017-10-03T07:15:27.029Z,13.49
2017-10-03T07:17:55.034Z,13.41
2017-10-03T07:20:22.754Z,13.36
2017-10-03T07:22:50.416Z,13.40
2017-10-03T07:25:17.976Z,13.49
2017-10-03T07:27:45.727Z,13.47
2017-10-03T07:30:13.370Z,13.34
2017-10-03T07:32:41.200Z,13.56
2017-10-03T07:35:08.751Z,13.68
2017-10-03T07:37:37.715Z,13.51
2017-10-03T07:40:05.294Z,13.48
2017-10-03T07:42:33.755Z,13.58
2017-10-03T07:45:01.314Z,13.45
2017-10-03T07:47:29.295Z,13.42
2017-10-03T07:49:57.157Z,13.28
2017-10-03T07:52:24.709Z,13.44
2017-10-03T07:54:52.273Z,13.84
2017-10-03T07:57:19.993Z,13.97
2017-10-03T07:59:47.695Z,14.70
2017-10-03T08:02:15.460Z,14.97
2017-10-03T08:04:43.642Z,14.92
2017-10-03T08:07:11.510Z,14.92
2017-10-03T08:09:39.098Z,14.92
2017-10-03T08:12:07.231Z,14.92
2017-10-03T08:14:34.745Z,14.91
2017-10-03T08:17:03.685Z,14.89
2017-10-03T08:19:31.662Z,14.88
2017-10-03T08:21:59.220Z,15.27
2017-10-03T08:24:26.765Z,15.61
2017-10-03T08:26:54.339Z,15.51
2017-10-03T08:29:22.008Z,15.83
2017-10-03T08:31:49.590Z,15.76
2017-10-03T08:34:17.823Z,15.70
2017-10-03T08:36:45.698Z,15.85
2017-10-03T08:39:13.266Z,16.12
2017-10-03T08:41:41.073Z,16.03
2017-10-03T08:44:08.673Z,16.12
2017-10-03T08:46:36.218Z,15.92
2017-10-03T08:49:04.235Z,16.25
2017-10-03T08:51:31.759Z,16.55
2017-10-03T08:53:59.317Z,16.88
2017-10-03T08:56:27.595Z,17.21
2017-10-03T08:58:55.492Z,18.03
2017-10-03T09:01:23.430Z,18.19
2017-10-03T09:03:51.601Z,18.08
2017-10-03T09:06:19.174Z,18.20
2017-10-03T09:08:46.935Z,18.35
2017-10-03T09:11:14.674Z,18.59
2017-10-03T09:13:44.040Z,19.76
2017-10-03T09:16:11.741Z,20.10
2017-10-03T09:18:39.622Z,19.65
2017-10-03T09:21:07.280Z,20.09
2017-10-03T09:23:34.973Z,20.66
2017-10-03T09:26:02.774Z,20.53
2017-10-03T09:28:31.187Z,21.46
2017-10-03T09:30:58.748Z,24.58
2017-10-03T09:33:26.327Z,26.90
2017-10-03T09:35:53.950Z,28.85
2017-10-03T09:38:21.490Z,30.36
2017-10-03T09:40:49.144Z,29.02
2017-10-03T09:43:16.848Z,26.60
2017-10-03T09:45:44.615Z,24.65
2017-10-03T09:48:12.889Z,23.28
2017-10-03T09:50:40.568Z,23.33
2017-10-03T09:53:08.316Z,25.05
2017-10-03T09:55:36.308Z,24.91
2017-10-03T09:58:03.963Z,24.41
2017-10-03T10:00:32.259Z,27.35
2017-10-03T10:03:00.207Z,30.52
2017-10-03T10:05:27.755Z,31.00
2017-10-03T10:07:55.429Z,33.14
2017-10-03T10:10:23.488Z,32.72
2017-10-03T10:12:51.246Z,34.82
2017-10-03T10:15:18.979Z,33.77
2017-10-03T10:17:46.997Z,29.97
2017-10-03T10:20:14.684Z,26.43
2017-10-03T10:22:42.206Z,23.51
2017-10-03T10:25:10.077Z,22.01
2017-10-03T10:27:37.829Z,21.05
2017-10-03T10:30:05.798Z,20.84
2017-10-03T10:32:33.480Z,25.43
2017-10-03T10:35:01.879Z,27.50
2017-10-03T10:37:29.459Z,26.84
2017-10-03T10:39:57.284Z,27.68
2017-10-03T10:42:24.826Z,25.49
2017-10-03T10:44:52.484Z,24.83
2017-10-03T10:47:20.553Z,24.36
2017-10-03T10:49:48.934Z,23.28
2017-10-03T10:52:16.493Z,22.53
2017-10-03T10:54:44.089Z,21.82
2017-10-03T10:57:11.622Z,20.89
2017-10-03T10:59:39.168Z,20.29
2017-10-03T11:02:07.138Z,19.81
2017-10-03T11:04:34.800Z,19.15
2017-10-03T11:07:02.473Z,18.86
2017-10-03T11:09:30.122Z,18.85
2017-10-03T11:11:57.901Z,19.27
2017-10-03T11:14:25.506Z,19.37
2017-10-03T11:16:53.535Z,19.85
2017-10-03T11:19:21.066Z,20.51
2017-10-03T11:21:48.856Z,20.27
2017-10-03T11:24:29.062Z,20.22
2017-10-03T11:26:56.759Z,20.12
2017-10-03T11:29:24.426Z,19.96
2017-10-03T11:31:52.695Z,19.90
2017-10-03T11:34:20.532Z,19.67
2017-10-03T11:36:48.319Z,18.98
2017-10-03T11:39:16.498Z,18.93
2017-10-03T11:41:44.305Z,18.73
2017-10-03T11:44:12.028Z,18.14
2017-10-03T11:46:39.792Z,17.80
2017-10-03T11:49:07.427Z,17.81
2017-10-03T11:51:35.277Z,17.93
2017-10-03T11:54:03.286Z,18.69
2017-10-03T11:56:31.067Z,18.99
2017-10-03T11:58:59.038Z,18.62
2017-10-03T12:01:27.244Z,18.54
2017-10-03T12:03:54.958Z,18.27
2017-10-03T12:06:22.720Z,18.18
2017-10-03T12:08:50.606Z,18.20
2017-10-03T12:11:18.455Z,20.36
2017-10-03T12:13:46.321Z,24.46
2017-10-03T12:16:15.023Z,28.86
2017-10-03T12:18:42.892Z,30.01
2017-10-03T12:21:11.557Z,28.30
2017-10-03T12:23:39.619Z,25.82
2017-10-03T12:26:07.392Z,23.97
2017-10-03T12:28:35.053Z,23.06
2017-10-03T12:31:02.716Z,22.37
2017-10-03T12:33:30.443Z,21.80
2017-10-03T12:35:58.347Z,20.80
2017-10-03T12:38:26.279Z,20.31
2017-10-03T12:40:53.976Z,19.59
2017-10-03T12:43:22.237Z,19.63
2017-10-03T12:45:50.220Z,19.83
2017-10-03T12:48:17.797Z,19.84
2017-10-03T12:50:45.411Z,20.03
2017-10-03T12:53:13.314Z,21.24
2017-10-03T12:55:41.276Z,23.15
2017-10-03T12:58:08.958Z,26.51
2017-10-03T13:00:37.016Z,29.91
2017-10-03T13:03:04.554Z,30.01
2017-10-03T13:05:32.126Z,29.65
2017-10-03T13:07:59.897Z,28.81
2017-10-03T13:10:27.494Z,28.58
2017-10-03T13:12:55.095Z,27.87
2017-10-03T13:15:22.878Z,25.32
2017-10-03T13:17:50.538Z,23.04
2017-10-03T13:20:19.098Z,22.79
2017-10-03T13:22:46.883Z,23.00
2017-10-03T13:25:14.622Z,24.92
2017-10-03T13:27:42.301Z,26.16
2017-10-03T13:30:10.380Z,25.19
2017-10-03T13:32:38.247Z,23.84
2017-10-03T13:35:06.934Z,22.11
2017-10-03T13:37:35.121Z,21.05
2017-10-03T13:40:04.035Z,20.32
2017-10-03T13:42:31.863Z,19.52
2017-10-03T13:44:59.933Z,19.14
2017-10-03T13:47:27.491Z,18.62
2017-10-03T13:49:55.131Z,18.24
2017-10-03T13:52:23.031Z,18.27
2017-10-03T13:54:50.785Z,18.08
2017-10-03T13:57:18.550Z,18.38
2017-10-03T13:59:46.144Z,18.55
2017-10-03T14:02:13.974Z,18.75
2017-10-03T14:04:41.847Z,19.07
2017-10-03T14:07:09.920Z,19.32
2017-10-03T14:09:37.880Z,19.08
2017-10-03T14:12:05.524Z,19.50
2017-10-03T14:14:33.715Z,20.14
2017-10-03T14:17:01.479Z,20.82
2017-10-03T14:19:29.309Z,20.33
2017-10-03T14:21:56.982Z,20.51
2017-10-03T14:24:24.772Z,20.19
2017-10-03T14:26:52.556Z,19.88
2017-10-03T14:29:20.520Z,19.35
2017-10-03T14:31:48.473Z,18.92
2017-10-03T14:34:16.256Z,19.10
2017-10-03T14:36:44.204Z,18.86
2017-10-03T14:39:11.969Z,18.93
2017-10-03T14:41:39.633Z,18.64
2017-10-03T14:44:07.704Z,18.81
2017-10-03T14:46:35.475Z,18.95
2017-10-03T14:49:03.394Z,19.38
2017-10-03T14:51:31.313Z,19.88
2017-10-03T14:53:59.063Z,19.95
2017-10-03T14:56:27.441Z,20.02
2017-10-03T14:58:55.410Z,19.36
2017-10-03T15:01:23.175Z,19.10
2017-10-03T15:03:51.245Z,19.08
2017-10-03T15:06:19.419Z,18.82
2017-10-03T15:08:47.675Z,18.52
2017-10-03T15:11:15.868Z,18.60
2017-10-03T15:13:43.653Z,18.61
2017-10-03T15:16:12.113Z,18.52
2017-10-03T15:18:40.010Z,18.58
2017-10-03T15:21:08.064Z,18.61
2017-10-03T15:23:35.930Z,18.39
2017-10-03T15:26:03.681Z,18.22
2017-10-03T15:28:32.566Z,18.29
2017-10-03T15:31:00.544Z,18.28
2017-10-03T15:33:28.672Z,18.35
2017-10-03T15:35:57.400Z,18.77
2017-10-03T15:38:25.818Z,18.42
2017-10-03T15:40:53.645Z,18.36
2017-10-03T15:43:21.718Z,18.27
2017-10-03T15:45:49.492Z,18.06
2017-10-03T15:48:17.242Z,17.96
2017-10-03T15:50:45.033Z,17.79
2017-10-03T15:53:12.834Z,17.73
2017-10-03T15:55:40.762Z,17.72
2017-10-03T15:58:09.322Z,17.67
2017-10-03T16:00:37.226Z,17.46
2017-10-03T16:03:05.055Z,17.36
2017-10-03T16:05:33.837Z,17.33
2017-10-03T16:08:01.934Z,17.20
2017-10-03T16:10:30.043Z,17.07
2017-10-03T16:12:57.954Z,16.86
2017-10-03T16:15:25.821Z,16.75
2017-10-03T16:17:53.583Z,16.63
2017-10-03T16:20:21.449Z,16.48
2017-10-03T16:22:49.730Z,16.41
2017-10-03T16:25:17.590Z,16.35
2017-10-03T16:27:46.074Z,16.24
2017-10-03T16:30:14.018Z,16.05
2017-10-03T16:32:41.908Z,15.94
2017-10-03T16:35:09.774Z,15.94
2017-10-03T16:37:37.544Z,15.84
2017-10-03T16:40:05.320Z,15.85
2017-10-03T16:42:33.373Z,15.89
2017-10-03T16:45:01.050Z,15.78
2017-10-03T16:47:28.806Z,15.63
2017-10-03T16:49:56.974Z,15.45
2017-10-03T16:52:24.751Z,15.40
2017-10-03T16:54:52.603Z,15.40
2017-10-03T16:57:20.572Z,15.26
2017-10-03T16:59:48.815Z,15.27
2017-10-03T17:02:16.713Z,15.27
2017-10-03T17:04:44.898Z,15.21
2017-10-03T17:07:12.870Z,15.21
2017-10-03T17:09:40.721Z,15.17
2017-10-03T17:12:08.901Z,15.27
2017-10-03T17:14:36.762Z,15.22
2017-10-03T17:17:04.647Z,15.19
2017-10-03T17:19:32.597Z,15.25
2017-10-03T17:22:00.442Z,15.29
2017-10-03T17:24:28.266Z,15.24
2017-10-03T17:26:57.246Z,15.21
2017-10-03T17:29:25.200Z,15.13
2017-10-03T17:31:52.955Z,15.15
2017-10-03T17:34:20.840Z,15.13
2017-10-03T17:36:48.801Z,15.16
2017-10-03T17:39:16.627Z,15.25
2017-10-03T17:41:44.725Z,15.18
2017-10-03T17:44:12.620Z,15.26
2017-10-03T17:46:40.839Z,15.29
2017-10-03T17:49:09.105Z,15.23
2017-10-03T17:51:36.906Z,15.05
2017-10-03T17:54:04.977Z,15.05
2017-10-03T17:56:32.750Z,15.04
2017-10-03T17:59:00.530Z,15.11
2017-10-03T18:01:28.766Z,15.06
2017-10-03T18:03:56.601Z,14.77
2017-10-03T18:06:24.415Z,14.68
2017-10-03T18:08:52.395Z,14.57
2017-10-03T18:11:20.349Z,14.36
2017-10-03T18:13:48.198Z,14.36
2017-10-03T18:16:16.089Z,14.12
2017-10-03T18:18:44.051Z,13.85
2017-10-03T18:21:11.814Z,13.88
2017-10-03T18:23:39.689Z,13.72
2017-10-03T18:26:07.658Z,13.41
2017-10-03T18:28:35.617Z,13.54
2017-10-03T18:31:03.485Z,13.46
2017-10-03T18:33:31.555Z,13.30
2017-10-03T18:35:59.604Z,13.30
2017-10-03T18:38:27.397Z,13.21
2017-10-03T18:40:55.489Z,13.16
2017-10-03T18:43:23.297Z,13.13
2017-10-03T18:45:52.769Z,13.03
2017-10-03T18:48:20.715Z,12.92
2017-10-03T18:50:48.680Z,12.85
2017-10-03T18:53:20.053Z,12.77
2017-10-03T18:55:47.986Z,12.55
2017-10-03T18:58:15.762Z,12.51
2017-10-03T19:00:43.835Z,12.49
2017-10-03T19:03:12.608Z,12.38
2017-10-03T19:05:40.381Z,12.36
2017-10-03T19:08:08.141Z,12.31
2017-10-03T19:10:36.308Z,12.30
2017-10-03T19:13:04.277Z,12.25
2017-10-03T19:15:32.044Z,12.12
2017-10-03T19:18:00.522Z,12.10
2017-10-03T19:20:28.491Z,12.05
2017-10-03T19:22:56.495Z,11.98
2017-10-03T19:25:24.337Z,11.90
2017-10-03T19:27:52.191Z,11.83
2017-10-03T19:30:20.646Z,11.71
2017-10-03T19:32:48.951Z,11.65
2017-10-03T19:35:17.532Z,11.68
2017-10-03T19:37:45.538Z,11.65
2017-10-03T19:40:14.725Z,11.64
2017-10-03T19:42:44.180Z,11.57
2017-10-03T19:45:12.479Z,11.43
2017-10-03T19:47:40.856Z,11.54
2017-10-03T19:50:09.774Z,11.52
2017-10-03T19:52:37.716Z,11.50
2017-10-03T19:55:05.787Z,11.48
2017-10-03T19:57:33.654Z,11.34
2017-10-03T20:00:01.431Z,11.33
2017-10-03T20:02:29.666Z,11.39
2017-10-03T20:04:57.376Z,11.42
2017-10-03T20:07:25.397Z,11.34
2017-10-03T20:09:53.291Z,11.91
2017-10-03T20:12:21.132Z,11.91
2017-10-03T20:14:49.144Z,11.83
2017-10-03T20:17:17.197Z,11.85
2017-10-03T20:19:44.975Z,11.91
2017-10-03T20:22:12.871Z,11.96
2017-10-03T20:24:40.694Z,11.89
2017-10-03T20:27:08.372Z,11.86
2017-10-03T20:29:37.048Z,11.85
2017-10-03T20:32:05.713Z,11.74
2017-10-03T20:34:33.562Z,11.81
2017-10-03T20:37:01.480Z,11.79
2017-10-03T20:39:29.391Z,11.65
2017-10-03T20:41:57.061Z,11.61
2017-10-03T20:44:24.852Z,11.60
2017-10-03T20:46:52.721Z,11.56
2017-10-03T20:49:21.101Z,11.61
2017-10-03T20:51:49.226Z,11.59
2017-10-03T20:54:17.142Z,11.65
2017-10-03T20:56:44.904Z,11.58
2017-10-03T20:59:12.529Z,11.62
2017-10-03T21:01:40.429Z,11.79
2017-10-03T21:04:08.092Z,11.75
2017-10-03T21:06:35.958Z,11.75
2017-10-03T21:09:03.730Z,11.84
2017-10-03T21:11:31.683Z,11.84
2017-10-03T21:13:59.250Z,11.86
2017-10-03T21:18:54.996Z,11.58
2017-10-03T21:21:22.958Z,11.62
2017-10-03T21:23:50.891Z,11.66
2017-10-03T21:26:18.579Z,11.60
2017-10-03T21:28:46.378Z,11.51
2017-10-03T21:31:14.049Z,11.45
2017-10-03T21:33:41.668Z,11.39
2017-10-03T21:36:09.230Z,11.47
2017-10-03T21:38:37.608Z,11.27
2017-10-03T21:41:05.475Z,11.32
2017-10-03T21:43:32.986Z,11.33
2017-10-03T21:46:01.226Z,11.32
2017-10-03T21:48:28.778Z,11.22
2017-10-03T21:50:56.323Z,11.13
2017-10-03T21:53:24.292Z,11.22
2017-10-03T21:55:51.805Z,11.18
2017-10-03T21:58:19.348Z,11.19
2017-10-03T22:00:47.120Z,11.19
2017-10-03T22:03:14.630Z,11.15
2017-10-03T22:05:42.375Z,10.47
2017-10-03T22:08:09.939Z,10.45
2017-10-03T22:10:37.613Z,10.38
2017-10-03T22:13:05.126Z,10.28
2017-10-03T22:15:32.679Z,10.38
2017-10-03T22:18:00.227Z,10.30
2017-10-03T22:20:27.746Z,10.29
2017-10-03T22:22:55.486Z,10.21
2017-10-03T22:25:23.002Z,10.22
2017-10-03T22:27:50.526Z,10.21
2017-10-03T22:30:18.271Z,10.26
2017-10-03T22:32:58.774Z,10.15
2017-10-03T22:35:26.454Z,10.17
2017-10-03T22:37:53.976Z,10.08
2017-10-03T22:40:21.538Z,10.10
2017-10-03T22:42:49.295Z,10.20
2017-10-03T22:45:16.807Z,10.18
2017-10-03T22:47:44.319Z,10.23
2017-10-03T22:50:12.250Z,10.20
2017-10-03T22:52:39.771Z,10.23
2017-10-03T22:55:08.526Z,10.06
2017-10-03T22:57:36.299Z,10.04
2017-10-03T23:00:03.814Z,10.08
2017-10-03T23:02:31.321Z,10.28
2017-10-03T23:04:58.882Z,10.62
2017-10-03T23:07:26.432Z,10.60
2017-10-03T23:09:53.982Z,10.78
2017-10-03T23:12:21.543Z,10.71
2017-10-03T23:14:50.426Z,10.67
2017-10-03T23:17:18.891Z,10.59
2017-10-03T23:19:47.802Z,10.30
2017-10-03T23:22:15.310Z,9.83
2017-10-03T23:24:42.832Z,10.53
2017-10-03T23:27:10.563Z,10.57
2017-10-03T23:29:38.078Z,10.65
2017-10-03T23:32:05.586Z,10.77
2017-10-03T23:34:33.360Z,10.57
2017-10-03T23:37:01.642Z,10.74
2017-10-03T23:39:29.914Z,10.67
2017-10-03T23:41:57.692Z,10.64
2017-10-03T23:44:25.238Z,10.73
2017-10-03T23:46:52.746Z,10.61
2017-10-03T23:49:20.456Z,10.63
2017-10-03T23:51:48.016Z,10.59
2017-10-03T23:54:15.780Z,10.54
2017-10-03T23:56:43.360Z,10.52
2017-10-03T23:59:10.898Z,10.44
